Impacts METAR Board INFO
IDs:

KPHX - Phoenix/Sky Harbor, AZ, US

Updated at: 0246 UTC 15 Dec 2017
Potential Impact None Slight Moderate High
Time14/14Z 14/15Z 14/16Z 14/17Z 14/18Z 14/19Z 14/20Z 14/21Z 14/22Z 14/23Z 15/00Z 15/01Z 15/02Z
VIS10 10 10 10 10 10 10 10 10 10 10 10 10
CIG-- -- -- -- -- -- -- -- -- -- -- -- --
CoverFEWFEWFEWFEWFEWCLRCLRCLRCLRCLRCLRCLRCLR
FltCatVFRVFRVFRVFRVFRVFRVFRVFRVFRVFRVFRVFRVFR
WX--------------------------
WDir07012000027026029022031030040
WSpd0 5 5 0 0 0 5 5 4 6 5 5 14
WGst-- -- -- -- -- -- -- -- -- -- -- -- --
Raw hourly METARs
KPHX 141351Z 00000KT 10SM FEW200 08/M07 A2993 RMK AO2 SLP130 T00831067
KPHX 141451Z 07005KT 10SM FEW200 08/M11 A2995 RMK AO2 SLP136 T00781106 53017
KPHX 141551Z 12005KT 10SM FEW200 11/M10 A2996 RMK AO2 SLP141 T01061100
KPHX 141651Z 00000KT 10SM FEW080 FEW200 13/M09 A2999 RMK AO2 SLP147 T01331094
KPHX 141751Z 00000KT 10SM FEW200 16/M09 A2999 RMK AO2 SLP147 T01561094 10156 20072 50012
KPHX 141851Z 00000KT 10SM CLR 18/M09 A2996 RMK AO2 SLP139 T01831094
KPHX 141951Z 27005KT 10SM CLR 19/M09 A2995 RMK AO2 SLP133 T01891089
KPHX 142051Z 26005KT 10SM CLR 21/M09 A2992 RMK AO2 SLP124 T02061089 58021
KPHX 142151Z 29004KT 10SM CLR 22/M08 A2993 RMK AO2 SLP125 T02221083
KPHX 142251Z 22006KT 10SM CLR 23/M07 A2993 RMK AO2 SLP126 T02281072
KPHX 142351Z 31005KT 10SM CLR 22/M06 A2995 RMK AO2 SLP133 T02221061 10233 20156 53008
KPHX 150051Z 30005KT 10SM CLR 21/M04 A2998 RMK AO2 SLP144 T02061044
KPHX 150151Z 04014KT 10SM CLR 21/M05 A3000 RMK AO2 SLP152 T02061050